Time;durP1;ratioP1;P1;durP2;ratioP2;P2;SDS_P1;SDS_P2;PMS_P1;PMS_P2;Temp;Humidity;BMP_temperature;BMP_pressure;BME280_temperature;BME280_humidity;BME280_pressure;Samples;Min_cycle;Max_cycle;Signal;HPM_P1;HPM_P2
2022/11/12 00:00:16;;;;;;;;;;;;;;;5.03;84.79;102823.36;1829188;78;20163;-46
2022/11/12 00:03:02;;;;;;;;;;;;;;;5.01;84.69;102822.86;1840578;77;20430;-47
2022/11/12 00:05:49;;;;;;;;;;;;;;;5.00;84.69;102832.88;1860165;77;20175;-47
2022/11/12 00:08:35;;;;;;;;;;;;;;;4.99;84.69;102834.58;1860144;77;20165;-47
2022/11/12 00:11:21;;;;;;;;;;;;;;;5.01;84.64;102838.09;1831946;77;20185;-47
2022/11/12 00:14:07;;;;;;;;;;;;;;;5.05;84.56;102839.46;1829357;78;20120;-47
2022/11/12 00:16:53;;;;;;;;;;;;;;;5.07;84.59;102840.37;1829351;78;20150;-47
2022/11/12 00:19:39;;;;;;;;;;;;;;;5.10;84.64;102844.34;1837591;77;20119;-47
2022/11/12 00:22:24;;;;;;;;;;;;;;;5.13;84.58;102853.55;1860256;77;20405;-47
2022/11/12 00:25:11;;;;;;;;;;;;;;;5.14;84.50;102841.80;1860272;77;20118;-47
2022/11/12 00:28:04;;;;;;;;;;;;;;;5.15;84.44;102853.14;1860272;77;20411;-46
2022/11/12 00:30:49;;;;;;;;;;;;;;;5.17;84.42;102851.44;1860284;77;20145;-50
2022/11/12 00:33:36;;;;;;;;;;;;;;;5.18;84.41;102846.65;1860479;77;20170;-50
2022/11/12 00:36:22;;;;;;;;;;;;;;;5.19;84.40;102845.38;1860286;77;20147;-46
2022/11/12 00:39:08;;;;;;;;;;;;;;;5.17;84.56;102840.55;1860286;77;20155;-47
2022/11/12 00:41:55;;;;;;;;;;;;;;;5.19;84.62;102844.50;1860246;77;20137;-46
2022/11/12 00:44:41;;;;;;;;;;;;;;;5.19;84.58;102841.89;1860242;77;20159;-46
2022/11/12 00:47:27;;;;;;;;;;;;;;;5.18;84.56;102834.89;1837427;77;20394;-47
2022/11/12 00:50:14;;;;;;;;;;;;;;;5.16;84.59;102833.55;1829343;78;20151;-48
2022/11/12 00:53:00;;;;;;;;;;;;;;;5.11;84.70;102839.55;1829334;78;20149;-46
2022/11/12 00:55:46;;;;;;;;;;;;;;;5.08;84.71;102842.14;1829359;78;20166;-47
2022/11/12 00:58:34;;;;;;;;;;;;;;;5.05;84.76;102840.77;1829257;78;20124;-47
2022/11/12 01:01:20;;;;;;;;;;;;;;;5.05;84.83;102832.50;1829310;78;20148;-47
2022/11/12 01:04:06;;;;;;;;;;;;;;;5.05;84.92;102839.03;1829348;78;20192;-49
2022/11/12 01:06:53;;;;;;;;;;;;;;;5.08;84.90;102837.78;1829305;78;20158;-47
2022/11/12 01:09:38;;;;;;;;;;;;;;;5.05;84.97;102843.37;1829238;78;20146;-47
2022/11/12 01:12:24;;;;;;;;;;;;;;;4.98;85.08;102848.50;1829352;78;20129;-46
2022/11/12 01:15:10;;;;;;;;;;;;;;;5.00;85.16;102848.54;1829306;78;20159;-46
2022/11/12 01:17:56;;;;;;;;;;;;;;;4.99;85.18;102860.69;1829340;78;20160;-46
2022/11/12 01:20:42;;;;;;;;;;;;;;;4.98;85.25;102862.86;1830599;77;20145;-46
2022/11/12 01:23:27;;;;;;;;;;;;;;;5.03;85.21;102864.23;1841162;77;20393;-54
2022/11/12 01:26:15;;;;;;;;;;;;;;;5.08;85.15;102867.81;1859076;77;20152;-52
2022/11/12 01:29:00;;;;;;;;;;;;;;;5.14;85.07;102877.48;1860237;77;20138;-53
2022/11/12 01:31:46;;;;;;;;;;;;;;;5.18;84.90;102877.98;1860266;77;20137;-54
2022/11/12 01:34:32;;;;;;;;;;;;;;;5.20;84.88;102873.27;1842061;77;20201;-55
2022/11/12 01:37:18;;;;;;;;;;;;;;;5.24;84.80;102862.45;1879400;76;20137;-48
2022/11/12 01:40:05;;;;;;;;;;;;;;;5.26;84.76;102868.57;1860556;76;20148;-47
2022/11/12 01:42:52;;;;;;;;;;;;;;;5.25;84.55;102870.72;1870216;76;20250;-51
2022/11/12 01:45:40;;;;;;;;;;;;;;;5.25;84.44;102875.94;1874098;76;20191;-48
2022/11/12 01:48:27;;;;;;;;;;;;;;;5.24;84.34;102878.12;1891933;76;20109;-49
2022/11/12 01:51:13;;;;;;;;;;;;;;;5.22;84.28;102873.30;1889559;76;20603;-47
2022/11/12 01:54:00;;;;;;;;;;;;;;;5.19;84.32;102871.93;1838535;77;20457;-47
2022/11/12 01:56:48;;;;;;;;;;;;;;;5.19;84.40;102865.40;1849767;77;20445;-47
2022/11/12 01:59:35;;;;;;;;;;;;;;;5.20;84.34;102864.53;1856214;77;20158;-50
2022/11/12 02:02:21;;;;;;;;;;;;;;;5.17;84.39;102857.97;1847013;77;20120;-50
2022/11/12 02:05:08;;;;;;;;;;;;;;;5.14;84.48;102865.73;1831346;77;20124;-50
2022/11/12 02:07:55;;;;;;;;;;;;;;;5.05;84.76;102857.74;1829298;78;20200;-49
2022/11/12 02:10:41;;;;;;;;;;;;;;;5.05;84.90;102864.27;1842681;77;20118;-48
2022/11/12 02:16:35;;;;;;;;;;;;;;;5.02;84.85;102871.20;1834040;77;20156;-51
2022/11/12 02:19:21;;;;;;;;;;;;;;;4.98;84.98;102873.70;1829286;78;20116;-51
2022/11/12 02:22:07;;;;;;;;;;;;;;;4.97;85.09;102874.14;1829160;78;20157;-50
2022/11/12 02:24:52;;;;;;;;;;;;;;;4.94;85.18;102874.11;1845293;77;20149;-48
2022/11/12 02:27:39;;;;;;;;;;;;;;;4.92;85.36;102877.09;1860119;77;20123;-52
2022/11/12 02:30:32;;;;;;;;;;;;;;;4.88;85.47;102862.22;1860141;77;20189;-49
2022/11/12 02:33:18;;;;;;;;;;;;;;;4.92;85.45;102868.38;1860137;77;20154;-52
2022/11/12 02:36:04;;;;;;;;;;;;;;;4.90;85.42;102873.58;1846914;76;20116;-58
2022/11/12 02:38:50;;;;;;;;;;;;;;;4.88;85.54;102872.66;1829202;78;20387;-56
2022/11/12 02:41:36;;;;;;;;;;;;;;;4.84;85.64;102869.12;1829217;78;20176;-58
2022/11/12 02:44:22;;;;;;;;;;;;;;;4.84;85.72;102860.42;1829286;78;20391;-59
2022/11/12 02:47:08;;;;;;;;;;;;;;;4.82;85.83;102851.69;1841758;77;20146;-58
2022/11/12 02:49:54;;;;;;;;;;;;;;;4.88;85.75;102859.62;1860232;77;20222;-55
2022/11/12 02:52:40;;;;;;;;;;;;;;;4.90;85.59;102862.27;1853765;77;20117;-52
2022/11/12 02:55:26;;;;;;;;;;;;;;;4.91;85.43;102845.76;1829117;78;20168;-53
2022/11/12 02:58:12;;;;;;;;;;;;;;;4.95;85.34;102844.95;1829268;78;20116;-50
2022/11/12 03:00:58;;;;;;;;;;;;;;;4.98;85.41;102853.73;1829247;78;20469;-49
2022/11/12 03:03:44;;;;;;;;;;;;;;;5.01;85.33;102856.37;1829234;78;20387;-54
2022/11/12 03:06:30;;;;;;;;;;;;;;;5.03;85.25;102857.30;1829232;78;20124;-52
2022/11/12 03:09:16;;;;;;;;;;;;;;;5.03;85.22;102859.91;1846959;76;20170;-59
2022/11/12 03:12:01;;;;;;;;;;;;;;;5.05;85.11;102855.12;1870184;76;20151;-59
2022/11/12 03:14:47;;;;;;;;;;;;;;;5.07;85.06;102853.42;1864739;76;20148;-58
2022/11/12 03:17:34;;;;;;;;;;;;;;;5.01;85.16;102843.75;1891895;76;20156;-55
2022/11/12 03:20:20;;;;;;;;;;;;;;;5.00;85.22;102845.48;1891599;76;20116;-56
2022/11/12 03:23:07;;;;;;;;;;;;;;;5.00;85.31;102845.48;1835868;76;20180;-54
2022/11/12 03:25:53;;;;;;;;;;;;;;;5.01;85.37;102838.09;1852698;77;20155;-50
2022/11/12 03:28:39;;;;;;;;;;;;;;;5.04;85.34;102833.37;1857167;77;20119;-49
2022/11/12 03:31:25;;;;;;;;;;;;;;;5.01;85.36;102834.17;1857031;77;20139;-57
2022/11/12 03:34:11;;;;;;;;;;;;;;;4.99;85.37;102838.50;1855704;77;20122;-51
2022/11/12 03:36:57;;;;;;;;;;;;;;;5.03;85.31;102840.33;1854643;77;20440;-50
2022/11/12 03:39:42;;;;;;;;;;;;;;;5.03;85.14;102849.47;1856212;77;20119;-58
2022/11/12 03:42:28;;;;;;;;;;;;;;;5.07;85.20;102844.28;1848629;77;20124;-50
2022/11/12 03:45:14;;;;;;;;;;;;;;;5.13;85.19;102844.41;1854423;77;20377;-54
2022/11/12 03:48:00;;;;;;;;;;;;;;;5.18;85.12;102840.13;1854186;77;20285;-53
2022/11/12 03:50:46;;;;;;;;;;;;;;;5.22;85.00;102838.91;1858343;77;20162;-52
2022/11/12 03:53:32;;;;;;;;;;;;;;;5.17;85.01;102843.17;1854269;77;20935;-51
2022/11/12 03:56:18;;;;;;;;;;;;;;;5.20;84.92;102841.02;1858612;77;20189;-53
2022/11/12 03:59:05;;;;;;;;;;;;;;;5.23;84.83;102841.08;1850523;77;20397;-49
2022/11/12 04:01:51;;;;;;;;;;;;;;;5.25;84.78;102843.73;1859032;77;20433;-49
2022/11/12 04:10:44;;;;;;;;;;;;;;;5.18;84.89;102845.34;1858921;77;20153;-54
2022/11/12 04:13:30;;;;;;;;;;;;;;;5.23;84.94;102839.34;1857011;77;20256;-54
2022/11/12 04:22:28;;;;;;;;;;;;;;;5.32;84.48;102854.30;1857376;77;20381;-60
2022/11/12 04:28:17;;;;;;;;;;;;;;;5.36;84.32;102866.98;1859028;77;20197;-60
2022/11/12 04:31:03;;;;;;;;;;;;;;;5.38;84.21;102879.64;1858080;77;20115;-60
2022/11/12 04:33:49;;;;;;;;;;;;;;;5.37;84.12;102885.30;1853447;77;20122;-60
2022/11/12 04:36:35;;;;;;;;;;;;;;;5.37;84.06;102887.05;1858377;77;20407;-60
2022/11/12 04:39:20;;;;;;;;;;;;;;;5.36;84.01;102890.50;1858818;77;20118;-59
2022/11/12 04:45:12;;;;;;;;;;;;;;;5.39;84.02;102905.80;1852506;77;20463;-53
2022/11/12 04:47:58;;;;;;;;;;;;;;;5.39;84.01;102905.80;1855274;77;20419;-51
2022/11/12 04:50:45;;;;;;;;;;;;;;;5.38;83.98;102904.03;1857725;77;20206;-53
2022/11/12 04:53:31;;;;;;;;;;;;;;;5.34;83.96;102897.43;1858265;77;20385;-54
2022/11/12 04:56:17;;;;;;;;;;;;;;;5.32;83.97;102905.23;1857803;77;20479;-58
2022/11/12 04:59:03;;;;;;;;;;;;;;;5.27;83.95;102916.02;1858659;77;20131;-55
2022/11/12 05:01:49;;;;;;;;;;;;;;;5.28;83.98;102931.30;1852823;77;20159;-58
2022/11/12 05:04:35;;;;;;;;;;;;;;;5.31;84.02;102936.55;1857270;77;20167;-56
2022/11/12 05:07:21;;;;;;;;;;;;;;;5.32;83.98;102937.89;1857020;77;20209;-55
2022/11/12 05:10:08;;;;;;;;;;;;;;;5.35;83.97;102935.78;1856268;77;20199;-55
2022/11/12 05:12:53;;;;;;;;;;;;;;;5.39;83.94;102932.36;1858937;77;20119;-56
2022/11/12 05:15:39;;;;;;;;;;;;;;;5.44;83.91;102932.43;1859006;77;20443;-55
2022/11/12 05:18:25;;;;;;;;;;;;;;;5.49;83.84;102928.17;1856741;77;20155;-56
2022/11/12 05:24:14;;;;;;;;;;;;;;;5.52;83.66;102939.55;1853761;77;20153;-56
2022/11/12 05:27:00;;;;;;;;;;;;;;;5.53;83.64;102945.66;1849439;77;20115;-54
2022/11/12 05:29:46;;;;;;;;;;;;;;;5.54;83.62;102936.97;1854415;77;20212;-52
2022/11/12 05:32:32;;;;;;;;;;;;;;;5.58;83.60;102938.78;1828400;78;20367;-55
2022/11/12 05:35:17;;;;;;;;;;;;;;;5.61;83.56;102938.41;1830955;77;20184;-56
2022/11/12 05:38:03;;;;;;;;;;;;;;;5.64;83.51;102938.00;1829245;78;20144;-55
2022/11/12 05:40:49;;;;;;;;;;;;;;;5.68;83.45;102943.72;1829255;78;20158;-58
2022/11/12 05:43:35;;;;;;;;;;;;;;;5.71;83.42;102944.66;1829349;77;20421;-57
2022/11/12 05:46:21;;;;;;;;;;;;;;;5.71;83.36;102954.23;1844345;77;20414;-56
2022/11/12 05:49:07;;;;;;;;;;;;;;;5.75;83.36;102951.69;1846231;77;20518;-56
2022/11/12 05:51:53;;;;;;;;;;;;;;;5.80;83.37;102957.88;1860106;77;20151;-59
2022/11/12 05:54:39;;;;;;;;;;;;;;;5.85;83.41;102953.17;1843537;77;20116;-52
2022/11/12 05:57:26;;;;;;;;;;;;;;;5.87;83.34;102952.33;1846176;77;20393;-54
2022/11/12 06:00:12;;;;;;;;;;;;;;;5.88;83.32;102945.36;1851510;77;20123;-55
2022/11/12 06:02:58;;;;;;;;;;;;;;;5.85;83.52;102930.95;1860118;77;20138;-54
2022/11/12 06:05:43;;;;;;;;;;;;;;;5.87;83.48;102935.34;1840239;77;20124;-54
2022/11/12 06:08:29;;;;;;;;;;;;;;;5.91;83.40;102932.34;1829208;78;20121;-56
2022/11/12 06:11:15;;;;;;;;;;;;;;;5.93;83.55;102930.63;1829264;78;20230;-53
2022/11/12 06:14:02;;;;;;;;;;;;;;;5.92;83.55;102931.47;1827688;78;20234;-52
2022/11/12 06:16:48;;;;;;;;;;;;;;;5.91;83.69;102925.80;1829247;77;20117;-52
2022/11/12 06:19:34;;;;;;;;;;;;;;;5.99;83.68;102921.59;1827236;79;20180;-49
2022/11/12 06:22:20;;;;;;;;;;;;;;;6.02;83.53;102919.03;1827124;79;20239;-49
2022/11/12 06:25:06;;;;;;;;;;;;;;;6.01;83.54;102921.18;1843869;77;20114;-51
2022/11/12 06:27:52;;;;;;;;;;;;;;;6.04;83.61;102922.98;1857784;77;20147;-47
2022/11/12 06:30:37;;;;;;;;;;;;;;;6.08;83.48;102915.63;1857647;77;20507;-47
2022/11/12 06:33:23;;;;;;;;;;;;;;;6.12;83.50;102919.62;1857772;77;20427;-48
2022/11/12 06:36:10;;;;;;;;;;;;;;;6.17;83.50;102915.75;1855526;77;20140;-49
2022/11/12 06:38:55;;;;;;;;;;;;;;;6.21;83.41;102906.22;1857666;77;20120;-51
2022/11/12 06:41:41;;;;;;;;;;;;;;;6.17;83.52;102901.37;1834005;77;20386;-48
2022/11/12 06:44:27;;;;;;;;;;;;;;;6.19;83.68;102900.95;1857769;77;20237;-50
2022/11/12 06:47:13;;;;;;;;;;;;;;;6.28;83.54;102906.75;1844105;77;20144;-51
2022/11/12 06:49:59;;;;;;;;;;;;;;;6.33;83.45;102894.17;1828692;77;20135;-49
2022/11/12 06:52:45;;;;;;;;;;;;;;;6.40;83.42;102893.84;1827195;79;20129;-50
2022/11/12 06:55:31;;;;;;;;;;;;;;;6.46;83.31;102885.19;1827133;79;20444;-49
2022/11/12 06:58:17;;;;;;;;;;;;;;;6.54;83.22;102881.78;1827227;79;20454;-49
2022/11/12 07:01:11;;;;;;;;;;;;;;;6.54;83.09;102883.09;1833933;77;20149;-49
2022/11/12 07:03:57;;;;;;;;;;;;;;;6.49;83.09;102876.95;1848374;77;20148;-51
2022/11/12 07:06:42;;;;;;;;;;;;;;;6.50;83.05;102877.37;1848477;77;20159;-48
2022/11/12 07:09:28;;;;;;;;;;;;;;;6.55;82.94;102884.86;1857751;77;20137;-52
2022/11/12 07:12:14;;;;;;;;;;;;;;;6.60;82.92;102881.41;1855407;77;20107;-54
2022/11/12 07:15:00;;;;;;;;;;;;;;;6.64;82.87;102890.64;1850281;77;20121;-55
2022/11/12 07:17:46;;;;;;;;;;;;;;;6.70;82.90;102899.87;1829943;77;20182;-56
2022/11/12 07:20:32;;;;;;;;;;;;;;;6.79;82.92;102899.11;1827352;79;20139;-53
2022/11/12 07:23:23;;;;;;;;;;;;;;;6.83;82.77;102912.67;1833172;78;20160;-52
2022/11/12 07:26:06;;;;;;;;;;;;;;;6.87;82.62;102915.77;1833344;78;20155;-55
2022/11/12 07:28:55;;;;;;;;;;;;;;;6.91;82.54;102921.48;1832585;78;20148;-58
2022/11/12 07:31:40;;;;;;;;;;;;;;;6.96;82.47;102926.78;1857746;77;20149;-59
2022/11/12 07:34:25;;;;;;;;;;;;;;;7.01;82.43;102930.75;1857732;77;20142;-56
2022/11/12 07:37:11;;;;;;;;;;;;;;;7.08;82.37;102927.33;1857655;77;20114;-57
2022/11/12 07:39:58;;;;;;;;;;;;;;;7.10;82.30;102931.75;1855530;77;20169;-57
2022/11/12 07:42:44;;;;;;;;;;;;;;;7.09;82.25;102936.52;1857713;77;20146;-57
2022/11/12 07:45:30;;;;;;;;;;;;;;;7.10;82.20;102936.09;1857658;77;20119;-55
2022/11/12 07:48:16;;;;;;;;;;;;;;;7.09;82.09;102938.27;1830920;77;20123;-54
2022/11/12 07:51:03;;;;;;;;;;;;;;;7.12;82.09;102938.31;1829126;77;20126;-57
2022/11/12 07:53:50;;;;;;;;;;;;;;;7.15;82.05;102944.44;1827084;79;20415;-59
2022/11/12 07:56:35;;;;;;;;;;;;;;;7.16;81.97;102951.89;1827132;79;20229;-58
2022/11/12 07:59:21;;;;;;;;;;;;;;;7.19;82.00;102958.45;1827141;79;20162;-49
2022/11/12 08:02:08;;;;;;;;;;;;;;;7.19;81.98;102959.77;1829078;77;20403;-49
2022/11/12 08:04:54;;;;;;;;;;;;;;;7.20;81.99;102966.77;1827185;79;20121;-48
2022/11/12 08:07:40;;;;;;;;;;;;;;;7.23;82.02;102966.81;1827170;79;20112;-58
2022/11/12 08:10:26;;;;;;;;;;;;;;;7.25;82.01;102965.09;1827312;77;20382;-58
2022/11/12 08:13:12;;;;;;;;;;;;;;;7.24;82.14;102967.25;1857658;77;20138;-55
2022/11/12 08:15:59;;;;;;;;;;;;;;;7.29;82.12;102969.93;1857395;77;20174;-57
2022/11/12 08:18:45;;;;;;;;;;;;;;;7.29;82.18;102966.87;1857645;77;20147;-60
2022/11/12 08:21:31;;;;;;;;;;;;;;;7.28;82.39;102966.41;1850608;77;20144;-57
2022/11/12 08:24:17;;;;;;;;;;;;;;;7.38;82.42;102968.72;1827096;79;20173;-58
2022/11/12 08:27:03;;;;;;;;;;;;;;;7.41;82.28;102976.59;1827113;79;20144;-59
2022/11/12 08:29:49;;;;;;;;;;;;;;;7.46;82.24;102976.64;1827184;79;20156;-58
2022/11/12 08:32:35;;;;;;;;;;;;;;;7.48;82.11;102974.91;1841242;77;20119;-60
2022/11/12 08:35:20;;;;;;;;;;;;;;;7.49;82.04;102970.13;1857814;77;20151;-59
2022/11/12 08:38:10;;;;;;;;;;;;;;;7.50;81.94;102970.56;1857799;77;20178;-57
2022/11/12 08:40:57;;;;;;;;;;;;;;;7.52;81.89;102972.36;1857814;77;20115;-58
2022/11/12 08:43:43;;;;;;;;;;;;;;;7.49;81.71;102975.37;1855590;77;20119;-58
2022/11/12 08:46:28;;;;;;;;;;;;;;;7.49;81.63;102972.75;1853476;77;20119;-58
2022/11/12 08:49:14;;;;;;;;;;;;;;;7.48;81.60;102968.36;1827326;79;20117;-56
2022/11/12 08:52:00;;;;;;;;;;;;;;;7.42;81.54;102965.69;1827266;79;20152;-57
2022/11/12 08:54:46;;;;;;;;;;;;;;;7.35;81.54;102968.23;1829269;77;20157;-56
2022/11/12 08:57:31;;;;;;;;;;;;;;;7.38;81.57;102973.05;1827360;79;20116;-55
2022/11/12 09:00:18;;;;;;;;;;;;;;;7.42;81.61;102972.25;1827286;79;20215;-54
2022/11/12 09:03:04;;;;;;;;;;;;;;;7.47;81.61;102974.05;1827226;79;20382;-57
2022/11/12 09:05:51;;;;;;;;;;;;;;;7.46;81.55;102971.41;1827220;79;20128;-57
2022/11/12 09:08:38;;;;;;;;;;;;;;;7.46;81.53;102966.16;1827262;79;20428;-57
2022/11/12 09:11:24;;;;;;;;;;;;;;;7.48;81.57;102970.55;1827223;79;20125;-58
2022/11/12 09:14:09;;;;;;;;;;;;;;;7.54;81.59;102969.31;1826714;78;20274;-58
2022/11/12 09:16:56;;;;;;;;;;;;;;;7.56;81.56;102954.88;1836716;78;20130;-58
2022/11/12 09:19:42;;;;;;;;;;;;;;;7.58;81.50;102960.14;1829992;78;20220;-53
2022/11/12 09:22:28;;;;;;;;;;;;;;;7.58;81.45;102961.05;1819958;79;20192;-54
2022/11/12 09:25:14;;;;;;;;;;;;;;;7.58;81.40;102966.29;1841566;78;20127;-54
2022/11/12 09:28:08;;;;;;;;;;;;;;;7.60;81.37;102962.34;1850690;78;20396;-51
2022/11/12 09:30:55;;;;;;;;;;;;;;;7.61;81.33;102960.18;1849379;78;20142;-51
2022/11/12 09:33:40;;;;;;;;;;;;;;;7.63;81.30;102961.94;1848674;78;20145;-56
2022/11/12 09:36:26;;;;;;;;;;;;;;;7.62;81.32;102964.13;1820038;79;20404;-59
2022/11/12 09:39:12;;;;;;;;;;;;;;;7.65;81.32;102964.14;1820012;79;20121;-59
2022/11/12 09:41:58;;;;;;;;;;;;;;;7.68;81.28;102960.24;1819906;79;20277;-52
2022/11/12 09:44:45;;;;;;;;;;;;;;;7.70;81.34;102954.58;1838307;78;20123;-53
2022/11/12 09:47:38;;;;;;;;;;;;;;;7.72;81.32;102961.14;1847199;78;20115;-55
2022/11/12 09:50:28;;;;;;;;;;;;;;;7.68;81.21;102960.68;1849558;78;20269;-58
2022/11/12 09:53:16;;;;;;;;;;;;;;;7.65;81.17;102961.52;1849498;78;20123;-56
2022/11/12 09:56:03;;;;;;;;;;;;;;;7.65;81.21;102966.76;1839682;78;20435;-55
2022/11/12 09:58:49;;;;;;;;;;;;;;;7.63;81.24;102961.94;1849346;78;20197;-57
2022/11/12 10:01:36;;;;;;;;;;;;;;;7.66;81.27;102967.22;1847740;78;20115;-57
2022/11/12 10:04:32;;;;;;;;;;;;;;;7.66;81.21;102963.28;1840064;78;20232;-49
2022/11/12 10:07:29;;;;;;;;;;;;;;;7.72;81.20;102963.77;1841777;78;20178;-52
2022/11/12 10:10:25;;;;;;;;;;;;;;;7.74;81.17;102966.84;1840299;78;20123;-49
2022/11/12 10:13:12;;;;;;;;;;;;;;;7.77;81.12;102963.83;1843377;78;20164;-49
2022/11/12 10:19:05;;;;;;;;;;;;;;;7.78;80.98;102968.19;1847481;78;20174;-51
2022/11/12 10:22:09;;;;;;;;;;;;;;;7.79;81.05;102954.22;1847048;78;20163;-49
2022/11/12 10:24:55;;;;;;;;;;;;;;;7.84;81.07;102957.33;1845264;78;20650;-50
2022/11/12 10:27:41;;;;;;;;;;;;;;;7.87;80.99;102955.14;1847943;76;20255;-50
2022/11/12 10:30:27;;;;;;;;;;;;;;;7.91;80.93;102946.42;1843414;78;20381;-54
2022/11/12 10:33:14;;;;;;;;;;;;;;;7.92;80.93;102940.33;1834425;78;20503;-49
2022/11/12 10:36:07;;;;;;;;;;;;;;;7.90;80.68;102935.50;1834893;78;20119;-53
2022/11/12 10:38:54;;;;;;;;;;;;;;;7.86;80.63;102935.05;1833323;78;20486;-51
2022/11/12 10:41:39;;;;;;;;;;;;;;;7.86;80.73;102921.93;1835493;78;20437;-48
2022/11/12 10:44:26;;;;;;;;;;;;;;;7.89;80.67;102919.30;1834381;78;20241;-50
2022/11/12 10:47:32;;;;;;;;;;;;;;;7.86;80.54;102914.06;1833383;78;20262;-55
2022/11/12 10:50:25;;;;;;;;;;;;;;;7.87;80.51;102907.93;1831439;78;20263;-50
2022/11/12 10:53:12;;;;;;;;;;;;;;;7.85;80.42;102903.98;1829161;78;20208;-52
2022/11/12 10:55:59;;;;;;;;;;;;;;;7.80;80.30;102899.16;1843294;78;20504;-50
2022/11/12 10:58:45;;;;;;;;;;;;;;;7.70;80.38;102892.95;1831712;78;20259;-50
2022/11/12 11:01:32;;;;;;;;;;;;;;;7.68;80.46;102893.38;1829718;78;20233;-50
2022/11/12 11:04:22;;;;;;;;;;;;;;;7.61;80.52;102892.88;1835713;78;20252;-55
2022/11/12 11:07:24;;;;;;;;;;;;;;;7.58;80.40;102888.95;1845240;78;20245;-50
2022/11/12 11:10:12;;;;;;;;;;;;;;;7.56;80.44;102884.09;1845243;78;20244;-49
2022/11/12 11:13:11;;;;;;;;;;;;;;;7.63;80.44;102883.72;1847709;78;20529;-51
2022/11/12 11:15:59;;;;;;;;;;;;;;;7.68;80.42;102877.64;1852573;77;20167;-57
2022/11/12 11:18:49;;;;;;;;;;;;;;;7.74;80.33;102885.54;1856777;77;20163;-56
2022/11/12 11:21:43;;;;;;;;;;;;;;;7.78;80.30;102889.50;1856794;77;20126;-58
2022/11/12 11:24:35;;;;;;;;;;;;;;;7.81;80.33;102879.05;1856040;77;20190;-58
2022/11/12 11:27:31;;;;;;;;;;;;;;;7.87;80.32;102886.95;1855839;77;20397;-57
2022/11/12 11:30:18;;;;;;;;;;;;;;;7.91;80.34;102882.16;1857368;77;20249;-52
2022/11/12 11:33:14;;;;;;;;;;;;;;;7.88;80.18;102878.22;1854313;77;20242;-52
2022/11/12 11:36:05;;;;;;;;;;;;;;;7.86;80.10;102887.83;1851061;77;20119;-59
2022/11/12 11:39:01;;;;;;;;;;;;;;;7.81;80.10;102881.67;1855508;77;20439;-58
2022/11/12 11:41:54;;;;;;;;;;;;;;;7.77;80.01;102882.52;1841275;77;20120;-55
2022/11/12 11:44:41;;;;;;;;;;;;;;;7.69;79.96;102880.72;1827131;79;20394;-53
2022/11/12 11:47:34;;;;;;;;;;;;;;;7.66;79.95;102883.75;1827097;79;20117;-51
2022/11/12 11:50:21;;;;;;;;;;;;;;;7.62;79.94;102872.80;1824116;79;20152;-49
2022/11/12 11:53:17;;;;;;;;;;;;;;;7.62;79.99;102880.67;1830647;77;20121;-47
2022/11/12 11:56:04;;;;;;;;;;;;;;;7.59;80.08;102881.50;1827035;79;20196;-47
2022/11/12 11:58:55;;;;;;;;;;;;;;;7.58;80.17;102882.80;1827449;77;20128;-57
2022/11/12 12:01:57;;;;;;;;;;;;;;;7.57;80.30;102878.44;1833650;77;20192;-50
2022/11/12 12:04:44;;;;;;;;;;;;;;;7.62;80.31;102879.36;1827125;79;20113;-55
2022/11/12 12:07:44;;;;;;;;;;;;;;;7.63;80.13;102875.41;1827240;79;20125;-53
2022/11/12 12:10:31;;;;;;;;;;;;;;;7.63;80.10;102875.41;1828335;77;20116;-55
2022/11/12 12:13:19;;;;;;;;;;;;;;;7.64;80.11;102876.31;1836275;77;20121;-58
2022/11/12 12:16:09;;;;;;;;;;;;;;;7.63;80.01;102875.41;1826127;77;20121;-58
2022/11/12 12:19:02;;;;;;;;;;;;;;;7.65;80.03;102882.84;1827129;78;20281;-57
2022/11/12 12:21:50;;;;;;;;;;;;;;;7.64;79.97;102881.11;1844349;78;20166;-54
2022/11/12 12:24:37;;;;;;;;;;;;;;;7.63;79.92;102887.66;1852353;76;20145;-51
2022/11/12 12:27:24;;;;;;;;;;;;;;;7.61;79.92;102895.50;1849710;78;20361;-50
2022/11/12 12:30:11;;;;;;;;;;;;;;;7.60;79.92;102891.14;1849059;78;20199;-52
2022/11/12 12:32:58;;;;;;;;;;;;;;;7.59;79.92;102893.30;1843846;76;20246;-51
2022/11/12 12:35:49;;;;;;;;;;;;;;;7.59;79.96;102895.05;1833475;78;20248;-49
2022/11/12 12:38:38;;;;;;;;;;;;;;;7.57;80.06;102893.73;1838513;78;20220;-51
2022/11/12 12:41:44;;;;;;;;;;;;;;;7.56;80.06;102886.71;1833524;78;20119;-51
2022/11/12 12:45:17;;;;;;;;;;;;;;;7.58;80.10;102892.88;1837760;78;20253;-49
2022/11/12 12:47:19;;;;;;;;;;;;;;;7.58;80.05;102888.95;1826767;78;20174;-49
2022/11/12 12:50:07;;;;;;;;;;;;;;;7.59;80.04;102884.13;1839051;78;20137;-49
2022/11/12 12:53:01;;;;;;;;;;;;;;;7.59;79.97;102881.50;1846504;78;20119;-48
2022/11/12 12:55:48;;;;;;;;;;;;;;;7.57;79.94;102879.30;1840710;78;20163;-49
2022/11/12 12:58:35;;;;;;;;;;;;;;;7.57;80.01;102879.30;1848627;78;20152;-49
2022/11/12 13:01:22;;;;;;;;;;;;;;;7.58;79.99;102879.77;1847916;78;20394;-49
2022/11/12 13:04:09;;;;;;;;;;;;;;;7.59;80.01;102872.77;1844429;78;20189;-48
2022/11/12 13:06:55;;;;;;;;;;;;;;;7.58;79.99;102871.90;1841225;78;20122;-51
2022/11/12 13:09:41;;;;;;;;;;;;;;;7.57;79.96;102871.88;1844430;76;20123;-53
2022/11/12 13:12:45;;;;;;;;;;;;;;;7.53;79.97;102873.60;1844173;78;20123;-52
2022/11/12 13:15:32;;;;;;;;;;;;;;;7.51;80.00;102871.41;1847932;78;20123;-51
2022/11/12 13:18:38;;;;;;;;;;;;;;;7.50;80.02;102872.26;1848458;78;20261;-51
2022/11/12 13:21:24;;;;;;;;;;;;;;;7.49;80.02;102874.45;1849418;78;20408;-49
2022/11/12 13:24:10;;;;;;;;;;;;;;;7.49;80.00;102873.14;1847079;78;20149;-47
2022/11/12 13:27:00;;;;;;;;;;;;;;;7.48;80.00;102870.06;1848922;76;20118;-49
2022/11/12 13:29:47;;;;;;;;;;;;;;;7.48;80.03;102875.30;1847548;78;20542;-48
2022/11/12 13:32:34;;;;;;;;;;;;;;;7.49;80.01;102881.01;1843530;78;20535;-46
2022/11/12 13:35:22;;;;;;;;;;;;;;;7.48;80.06;102873.99;1843671;78;20210;-46
2022/11/12 13:38:12;;;;;;;;;;;;;;;7.45;80.12;102872.64;1849303;78;20130;-48
2022/11/12 13:40:59;;;;;;;;;;;;;;;7.43;80.14;102866.52;1847035;78;20119;-47
2022/11/12 13:43:46;;;;;;;;;;;;;;;7.44;80.17;102868.29;1849465;78;20115;-48
2022/11/12 13:46:33;;;;;;;;;;;;;;;7.40;80.28;102869.13;1848292;78;20141;-45
2022/11/12 13:49:19;;;;;;;;;;;;;;;7.39;80.25;102874.78;1848738;78;20194;-49
2022/11/12 13:52:05;;;;;;;;;;;;;;;7.40;80.20;102876.55;1848796;78;20118;-47
2022/11/12 13:55:02;;;;;;;;;;;;;;;7.41;80.16;102883.53;1849018;78;20155;-47
2022/11/12 13:57:54;;;;;;;;;;;;;;;7.41;80.15;102878.73;1849364;78;20126;-47
2022/11/12 14:00:40;;;;;;;;;;;;;;;7.41;80.12;102879.61;1849495;78;20119;-45
2022/11/12 14:03:27;;;;;;;;;;;;;;;7.41;80.12;102878.30;1849463;78;20174;-47
2022/11/12 14:06:24;;;;;;;;;;;;;;;7.41;80.09;102881.36;1849471;78;20123;-47
2022/11/12 14:09:11;;;;;;;;;;;;;;;7.42;80.10;102877.89;1849514;78;20431;-46
2022/11/12 14:12:10;;;;;;;;;;;;;;;7.41;80.09;102886.59;1849437;78;20127;-44
2022/11/12 14:15:14;;;;;;;;;;;;;;;7.40;80.09;102885.73;1849478;78;20150;-45
2022/11/12 14:18:19;;;;;;;;;;;;;;;7.42;80.11;102892.30;1855758;77;20505;-46
2022/11/12 14:21:12;;;;;;;;;;;;;;;7.42;80.07;102893.61;1859156;77;20119;-47
2022/11/12 14:23:58;;;;;;;;;;;;;;;7.42;80.07;102893.61;1857963;77;20125;-49
2022/11/12 14:26:43;;;;;;;;;;;;;;;7.43;80.06;102900.59;1854458;77;20141;-47
2022/11/12 14:29:30;;;;;;;;;;;;;;;7.44;80.08;102903.67;1852192;77;20266;-47
2022/11/12 14:32:16;;;;;;;;;;;;;;;7.44;80.07;102899.74;1855808;77;20123;-47
2022/11/12 14:35:03;;;;;;;;;;;;;;;7.44;80.07;102899.30;1852100;77;20185;-48
2022/11/12 14:37:51;;;;;;;;;;;;;;;7.45;80.06;102891.89;1855068;77;20126;-48
2022/11/12 14:40:38;;;;;;;;;;;;;;;7.47;80.04;102904.98;1858317;77;20154;-47
2022/11/12 14:43:31;;;;;;;;;;;;;;;7.46;80.01;102892.77;1858983;77;20185;-47
2022/11/12 14:46:25;;;;;;;;;;;;;;;7.47;80.05;102895.81;1855456;77;20272;-49
2022/11/12 14:49:19;;;;;;;;;;;;;;;7.47;80.04;102895.81;1852366;77;20434;-46
2022/11/12 14:52:06;;;;;;;;;;;;;;;7.48;80.04;102898.89;1854972;77;20197;-48
2022/11/12 14:54:57;;;;;;;;;;;;;;;7.46;80.02;102898.88;1859086;77;20388;-47
2022/11/12 14:57:40;;;;;;;;;;;;;;;7.44;80.09;102902.36;1859045;77;20365;-48
2022/11/12 15:00:34;;;;;;;;;;;;;;;7.43;80.11;102907.14;1858997;77;20190;-46